createdAt,value
2022-09-22T00:02:47.351Z,95.55
2022-09-22T00:05:49.126Z,96.46
2022-09-22T00:08:55.019Z,95.58
2022-09-22T00:11:58.179Z,95.04
2022-09-22T00:15:00.028Z,94.26
2022-09-22T00:18:04.169Z,94.47
2022-09-22T00:21:18.765Z,94.79
2022-09-22T00:24:25.197Z,95.81
2022-09-22T00:27:27.316Z,96.93
2022-09-22T00:30:32.130Z,96.85
2022-09-22T00:33:34.696Z,96.78
2022-09-22T00:36:36.467Z,97.49
2022-09-22T00:39:38.626Z,97.62
2022-09-22T00:42:40.532Z,98.13
2022-09-22T00:45:43.915Z,98.54
2022-09-22T00:48:53.171Z,98.73
2022-09-22T00:51:55.673Z,98.12
2022-09-22T00:55:00.208Z,97.98
2022-09-22T00:58:03.621Z,98.44
2022-09-22T01:01:08.144Z,98.69
2022-09-22T01:04:10.430Z,98.80
2022-09-22T01:07:12.658Z,99.39
2022-09-22T01:10:15.461Z,99.48
2022-09-22T01:13:17.716Z,99.93
2022-09-22T01:16:41.214Z,99.38
2022-09-22T01:20:14.990Z,100.00
2022-09-22T01:23:24.615Z,100.00
2022-09-22T01:26:45.210Z,100.00
2022-09-22T01:30:15.344Z,100.00
2022-09-22T01:33:20.616Z,100.00
2022-09-22T01:36:26.148Z,100.00
2022-09-22T01:39:34.776Z,100.00
2022-09-22T01:42:44.264Z,99.62
2022-09-22T01:45:48.487Z,99.80
2022-09-22T01:48:51.671Z,99.02
2022-09-22T01:51:59.607Z,98.42
2022-09-22T01:55:04.163Z,98.20
2022-09-22T01:58:19.274Z,98.10
2022-09-22T02:01:26.234Z,98.83
2022-09-22T02:04:42.082Z,100.00
2022-09-22T02:07:46.657Z,100.00
2022-09-22T02:10:48.909Z,100.00
2022-09-22T02:13:51.430Z,99.69
2022-09-22T02:16:54.003Z,99.18
2022-09-22T02:19:56.324Z,98.75
2022-09-22T02:22:58.124Z,97.62
2022-09-22T02:26:03.930Z,96.27
2022-09-22T02:29:11.877Z,96.17
2022-09-22T02:32:17.719Z,96.89
2022-09-22T02:35:22.272Z,97.18
2022-09-22T02:38:31.219Z,97.79
2022-09-22T02:41:39.583Z,98.25
2022-09-22T02:44:47.903Z,98.49
2022-09-22T02:47:53.878Z,98.40
2022-09-22T02:50:56.081Z,98.85
2022-09-22T02:53:58.604Z,99.13
2022-09-22T02:57:01.068Z,99.33
2022-09-22T03:00:05.390Z,99.63
2022-09-22T03:03:07.418Z,100.00
2022-09-22T03:06:09.148Z,100.00
2022-09-22T03:09:11.797Z,100.00
2022-09-22T03:12:14.829Z,99.34
2022-09-22T03:15:16.874Z,99.62
2022-09-22T03:18:21.048Z,99.14
2022-09-22T03:21:22.941Z,98.22
2022-09-22T03:24:26.193Z,98.08
2022-09-22T03:27:28.328Z,98.70
2022-09-22T03:30:32.136Z,99.40
2022-09-22T03:33:35.366Z,98.66
2022-09-22T03:36:37.496Z,98.63
2022-09-22T03:39:39.845Z,97.86
2022-09-22T03:42:41.595Z,96.90
2022-09-22T03:45:44.842Z,95.63
2022-09-22T03:48:46.993Z,95.81
2022-09-22T03:51:51.336Z,95.92
2022-09-22T03:54:55.747Z,94.77
2022-09-22T03:57:57.412Z,94.74
2022-09-22T04:00:59.463Z,95.57
2022-09-22T04:04:01.483Z,96.38
2022-09-22T04:07:07.111Z,97.75
2022-09-22T04:10:09.465Z,98.85
2022-09-22T04:13:11.862Z,99.59
2022-09-22T04:16:13.772Z,99.98
2022-09-22T04:19:15.620Z,100.00
2022-09-22T04:22:17.351Z,100.00
2022-09-22T04:25:19.198Z,100.00
2022-09-22T04:28:20.921Z,100.00
2022-09-22T04:31:23.262Z,100.00
2022-09-22T04:34:25.249Z,99.73
2022-09-22T04:37:27.245Z,99.99
2022-09-22T04:40:30.089Z,100.00
2022-09-22T04:43:32.237Z,100.00
2022-09-22T04:46:34.201Z,100.00
2022-09-22T04:49:36.069Z,99.87
2022-09-22T04:52:38.046Z,99.70
2022-09-22T04:55:39.848Z,99.41
2022-09-22T04:58:41.691Z,99.49
2022-09-22T05:01:43.834Z,99.19
2022-09-22T05:04:45.803Z,98.59
2022-09-22T05:07:53.914Z,98.47
2022-09-22T05:10:56.974Z,97.99
2022-09-22T05:13:58.872Z,97.44
2022-09-22T05:17:00.795Z,98.25
2022-09-22T05:20:06.688Z,98.09
2022-09-22T05:23:08.427Z,97.98
2022-09-22T05:26:10.326Z,97.23
2022-09-22T05:29:12.261Z,97.17
2022-09-22T05:32:14.022Z,96.44
2022-09-22T05:35:18.980Z,95.87
2022-09-22T05:38:21.389Z,95.43
2022-09-22T05:41:23.439Z,94.46
2022-09-22T05:44:25.535Z,93.10
2022-09-22T05:47:27.451Z,91.56
2022-09-22T05:50:29.338Z,90.67
2022-09-22T05:53:31.097Z,89.61
2022-09-22T05:56:33.090Z,89.79
2022-09-22T05:59:34.999Z,89.92
2022-09-22T06:02:36.932Z,90.08
2022-09-22T06:05:39.677Z,89.82
2022-09-22T06:08:45.124Z,89.35
2022-09-22T06:11:50.265Z,89.06
2022-09-22T06:14:52.070Z,88.58
2022-09-22T06:17:53.955Z,89.14
2022-09-22T06:20:58.695Z,89.17
2022-09-22T06:24:00.975Z,88.33
2022-09-22T06:27:02.831Z,88.75
2022-09-22T06:30:05.179Z,88.59
2022-09-22T06:33:08.674Z,87.93
2022-09-22T06:36:10.804Z,86.98
2022-09-22T06:39:13.320Z,86.22
2022-09-22T06:42:17.132Z,86.93
2022-09-22T06:45:19.089Z,85.58
2022-09-22T06:48:24.297Z,85.88
2022-09-22T06:51:34.000Z,85.31
2022-09-22T06:54:40.781Z,84.34
2022-09-22T06:57:42.855Z,83.85
2022-09-22T07:00:45.031Z,83.29
2022-09-22T07:03:47.123Z,81.42
2022-09-22T07:06:50.602Z,81.19
2022-09-22T07:09:52.573Z,79.97
2022-09-22T07:12:54.527Z,79.38
2022-09-22T07:16:04.561Z,78.78
2022-09-22T07:19:07.051Z,78.17
2022-09-22T07:22:09.532Z,79.34
2022-09-22T07:25:12.341Z,76.85
2022-09-22T07:28:15.110Z,78.52
2022-09-22T07:31:17.642Z,75.84
2022-09-22T07:34:19.342Z,77.70
2022-09-22T07:37:21.196Z,76.04
2022-09-22T07:40:23.358Z,76.23
2022-09-22T07:43:25.150Z,74.96
2022-09-22T07:46:26.910Z,76.35
2022-09-22T07:49:28.802Z,73.79
2022-09-22T07:52:31.295Z,75.11
2022-09-22T07:55:36.809Z,75.46
2022-09-22T07:58:41.496Z,72.27
2022-09-22T08:01:47.726Z,73.80
2022-09-22T08:04:49.743Z,74.89
2022-09-22T08:07:52.101Z,74.20
2022-09-22T08:10:53.975Z,75.54
2022-09-22T08:13:57.609Z,75.34
2022-09-22T08:16:59.447Z,74.83
2022-09-22T08:20:03.598Z,74.74
2022-09-22T08:23:05.667Z,72.91
2022-09-22T08:26:09.672Z,73.25
2022-09-22T08:29:11.538Z,72.97
2022-09-22T08:32:17.728Z,72.30
2022-09-22T08:35:22.800Z,71.86
2022-09-22T08:38:25.886Z,71.70
2022-09-22T08:41:39.986Z,71.06
2022-09-22T08:44:46.614Z,70.21
2022-09-22T08:48:11.405Z,69.80
2022-09-22T08:51:43.984Z,71.64
2022-09-22T08:54:46.324Z,72.43
2022-09-22T08:57:57.581Z,73.87
2022-09-22T09:01:14.775Z,73.67
2022-09-22T09:05:11.302Z,74.89
2022-09-22T09:08:15.620Z,72.68
2022-09-22T09:11:37.642Z,72.11
2022-09-22T09:15:07.011Z,68.57
2022-09-22T09:18:17.825Z,67.59
2022-09-22T09:21:19.736Z,68.56
2022-09-22T09:28:04.128Z,70.14
2022-09-22T09:31:22.118Z,69.87
2022-09-22T09:34:28.963Z,69.84
2022-09-22T09:37:31.666Z,67.84
2022-09-22T09:40:38.445Z,69.61
2022-09-22T09:43:42.879Z,70.28
2022-09-22T09:46:54.250Z,68.28
2022-09-22T09:49:56.035Z,68.00
2022-09-22T09:53:02.374Z,66.02
2022-09-22T09:56:12.413Z,64.79
2022-09-22T09:59:32.707Z,67.33
2022-09-22T10:02:48.771Z,65.45
2022-09-22T10:06:02.903Z,66.08
2022-09-22T10:09:04.807Z,66.83
2022-09-22T10:12:22.537Z,64.39
2022-09-22T10:15:26.352Z,64.78
2022-09-22T10:18:34.103Z,62.84
2022-09-22T10:21:37.765Z,64.40
2022-09-22T10:24:39.738Z,63.70
2022-09-22T10:27:42.898Z,62.42
2022-09-22T10:30:58.081Z,59.79
2022-09-22T10:34:00.879Z,61.04
2022-09-22T10:37:07.310Z,58.68
2022-09-22T10:40:14.763Z,58.59
2022-09-22T10:43:38.332Z,57.76
2022-09-22T10:46:50.071Z,57.62
2022-09-22T10:50:29.064Z,60.42
2022-09-22T10:53:49.942Z,61.55
2022-09-22T10:56:55.023Z,64.11
2022-09-22T11:00:29.131Z,65.77
2022-09-22T11:04:30.864Z,66.73
2022-09-22T11:08:06.481Z,68.68
2022-09-22T11:11:37.244Z,68.14
2022-09-22T11:14:56.653Z,69.56
2022-09-22T11:18:13.529Z,72.75
2022-09-22T11:21:35.515Z,72.21
2022-09-22T11:24:58.991Z,71.83
2022-09-22T11:28:39.529Z,71.56
2022-09-22T11:31:44.076Z,69.60
2022-09-22T11:34:49.662Z,68.42
2022-09-22T11:38:11.554Z,68.78
2022-09-22T11:41:20.561Z,67.54
2022-09-22T11:44:43.909Z,66.43
2022-09-22T11:48:12.751Z,61.72
2022-09-22T11:51:21.663Z,64.13
2022-09-22T11:54:54.412Z,61.00
2022-09-22T11:57:59.854Z,62.66
2022-09-22T12:01:18.355Z,62.54
2022-09-22T12:04:40.295Z,60.05
2022-09-22T12:07:49.323Z,62.94
2022-09-22T12:10:52.130Z,60.60
2022-09-22T12:13:56.033Z,62.22
2022-09-22T12:17:01.558Z,60.18
2022-09-22T12:20:12.904Z,59.15
2022-09-22T12:23:51.706Z,56.71
2022-09-22T12:26:53.956Z,57.22
2022-09-22T12:29:57.400Z,59.47
2022-09-22T12:32:59.133Z,60.49
2022-09-22T12:36:02.366Z,59.68
2022-09-22T12:39:22.589Z,57.63
2022-09-22T12:42:35.270Z,55.36
2022-09-22T12:45:38.394Z,56.68
2022-09-22T12:48:44.837Z,56.89
2022-09-22T12:51:46.903Z,53.11
2022-09-22T12:54:48.771Z,53.73
2022-09-22T12:57:51.722Z,56.84
2022-09-22T13:01:17.475Z,54.92
2022-09-22T13:04:19.456Z,56.34
2022-09-22T13:07:34.065Z,54.51
2022-09-22T13:10:36.082Z,54.70
2022-09-22T13:13:42.794Z,53.70
2022-09-22T13:16:46.885Z,56.46
2022-09-22T13:19:57.960Z,52.93
2022-09-22T13:23:14.190Z,51.44
2022-09-22T13:26:19.153Z,54.01
2022-09-22T13:29:21.777Z,52.98
2022-09-22T13:32:28.446Z,51.04
2022-09-22T13:35:39.317Z,51.49
2022-09-22T13:38:54.375Z,53.32
2022-09-22T13:42:04.274Z,52.86
2022-09-22T13:45:10.620Z,52.04
2022-09-22T13:48:15.285Z,52.21
2022-09-22T13:51:17.758Z,52.76
2022-09-22T13:54:23.364Z,51.03
2022-09-22T13:57:33.703Z,51.83
2022-09-22T14:01:11.567Z,49.72
2022-09-22T14:04:25.025Z,50.08
2022-09-22T14:07:31.420Z,50.57
2022-09-22T14:10:34.929Z,51.92
2022-09-22T14:13:36.890Z,49.74
2022-09-22T14:16:43.056Z,50.53
2022-09-22T14:19:51.802Z,51.39
2022-09-22T14:22:54.746Z,48.91
2022-09-22T14:25:58.534Z,49.92
2022-09-22T14:29:15.764Z,47.44
2022-09-22T14:32:32.084Z,46.59
2022-09-22T14:35:39.094Z,47.32
2022-09-22T14:38:46.699Z,47.33
2022-09-22T14:41:59.402Z,48.93
2022-09-22T14:45:12.167Z,47.23
2022-09-22T14:48:21.390Z,49.05
2022-09-22T14:51:25.057Z,49.25
2022-09-22T14:54:31.229Z,48.91
2022-09-22T14:57:34.407Z,49.65
2022-09-22T15:00:55.932Z,50.30
2022-09-22T15:04:03.302Z,49.94
2022-09-22T15:07:08.936Z,50.87
2022-09-22T15:10:25.852Z,50.09
2022-09-22T15:13:31.967Z,50.82
2022-09-22T15:16:34.025Z,52.15
2022-09-22T15:19:38.014Z,50.62
2022-09-22T15:22:40.145Z,51.22
2022-09-22T15:25:44.668Z,51.26
2022-09-22T15:28:48.171Z,53.11
2022-09-22T15:31:50.980Z,52.64
2022-09-22T15:34:55.210Z,53.56
2022-09-22T15:37:57.537Z,54.50
2022-09-22T15:41:00.217Z,53.86
2022-09-22T15:44:03.311Z,54.09
2022-09-22T15:47:06.548Z,54.69
2022-09-22T15:50:18.497Z,53.22
2022-09-22T15:53:20.591Z,54.96
2022-09-22T15:56:24.454Z,55.60
2022-09-22T15:59:28.725Z,56.50
2022-09-22T16:02:32.960Z,57.25
2022-09-22T16:05:36.365Z,57.62
2022-09-22T16:08:46.823Z,58.27
2022-09-22T16:11:49.958Z,57.95
2022-09-22T16:14:52.775Z,57.82
2022-09-22T16:17:54.748Z,57.04
2022-09-22T16:21:33.315Z,56.89
2022-09-22T16:24:35.245Z,58.12
2022-09-22T16:27:39.216Z,57.82
2022-09-22T16:30:41.662Z,58.86
2022-09-22T16:33:45.420Z,58.67
2022-09-22T16:36:47.687Z,59.61
2022-09-22T16:39:50.222Z,59.26
2022-09-22T16:42:53.195Z,60.44
2022-09-22T16:46:14.045Z,60.89
2022-09-22T16:49:17.696Z,61.67
2022-09-22T16:52:20.406Z,61.77
2022-09-22T16:55:22.882Z,62.89
2022-09-22T16:58:24.900Z,64.74
2022-09-22T17:01:27.785Z,63.77
2022-09-22T17:04:32.397Z,65.12
2022-09-22T17:07:34.486Z,65.75
2022-09-22T17:10:36.549Z,67.83
2022-09-22T17:13:38.745Z,68.70
2022-09-22T17:16:43.174Z,71.11
2022-09-22T17:19:48.715Z,71.00
2022-09-22T17:22:52.135Z,70.60
2022-09-22T17:25:54.375Z,71.63
2022-09-22T17:29:01.194Z,71.77
2022-09-22T17:32:06.125Z,72.53
2022-09-22T17:35:11.985Z,72.80
2022-09-22T17:38:14.175Z,73.50
2022-09-22T17:41:19.833Z,74.50
2022-09-22T17:44:28.054Z,74.39
2022-09-22T17:47:48.797Z,75.55
2022-09-22T17:51:09.848Z,75.12
2022-09-22T17:54:44.736Z,76.16
2022-09-22T17:57:46.971Z,75.32
2022-09-22T18:00:49.908Z,75.29
2022-09-22T18:03:52.805Z,76.33
2022-09-22T18:06:54.928Z,77.44
2022-09-22T18:09:57.233Z,75.96
2022-09-22T18:13:00.721Z,76.77
2022-09-22T18:16:25.458Z,76.47
2022-09-22T18:19:29.370Z,76.63
2022-09-22T18:22:31.956Z,77.88
2022-09-22T18:25:34.228Z,77.10
2022-09-22T18:28:37.121Z,76.75
2022-09-22T18:31:40.006Z,78.84
2022-09-22T18:34:42.299Z,77.15
2022-09-22T18:37:47.968Z,74.16
2022-09-22T18:40:51.374Z,74.67
2022-09-22T18:43:54.065Z,73.27
2022-09-22T18:46:56.733Z,74.31
2022-09-22T18:50:00.078Z,74.24
2022-09-22T18:53:02.329Z,72.32
2022-09-22T18:56:11.368Z,72.31
2022-09-22T18:59:23.645Z,71.38
2022-09-22T19:02:25.991Z,70.56
2022-09-22T19:05:28.908Z,69.38
2022-09-22T19:08:31.055Z,68.58
2022-09-22T19:11:35.646Z,69.05
2022-09-22T19:14:39.977Z,69.39
2022-09-22T19:17:50.082Z,69.92
2022-09-22T19:20:51.989Z,69.71
2022-09-22T19:23:54.647Z,70.31
2022-09-22T19:26:57.044Z,70.91
2022-09-22T19:29:59.830Z,70.62
2022-09-22T19:33:02.121Z,70.76
2022-09-22T19:36:04.530Z,71.09
2022-09-22T19:39:08.636Z,71.36
2022-09-22T19:42:10.658Z,72.62
2022-09-22T19:45:13.728Z,72.51
2022-09-22T19:48:16.277Z,72.26
2022-09-22T19:51:18.673Z,71.94
2022-09-22T19:54:21.284Z,72.56
2022-09-22T19:57:23.408Z,73.42
2022-09-22T20:00:28.779Z,73.36
2022-09-22T20:03:30.713Z,73.88
2022-09-22T20:06:34.694Z,74.42
2022-09-22T20:09:36.948Z,74.86
2022-09-22T20:12:39.982Z,76.12
2022-09-22T20:15:42.380Z,76.77
2022-09-22T20:18:44.359Z,78.02
2022-09-22T20:21:47.653Z,77.44
2022-09-22T20:24:55.339Z,76.81
2022-09-22T20:27:57.780Z,75.49
2022-09-22T20:30:59.658Z,76.54
2022-09-22T20:34:02.554Z,75.60
2022-09-22T20:37:04.819Z,75.77
2022-09-22T20:40:20.565Z,75.78
2022-09-22T20:43:23.780Z,76.23
2022-09-22T20:46:26.260Z,75.46
2022-09-22T20:49:29.263Z,75.47
2022-09-22T20:52:31.547Z,75.42
2022-09-22T20:55:33.753Z,75.62
2022-09-22T20:58:40.485Z,76.54
2022-09-22T21:01:43.241Z,75.69
2022-09-22T21:04:45.426Z,76.51
2022-09-22T21:07:47.328Z,78.04
2022-09-22T21:10:51.227Z,79.20
2022-09-22T21:14:03.238Z,79.79
2022-09-22T21:17:06.895Z,79.95
2022-09-22T21:20:09.755Z,81.43
2022-09-22T21:23:11.935Z,81.54
2022-09-22T21:26:17.211Z,82.83
2022-09-22T21:29:21.375Z,84.25
2022-09-22T21:32:24.406Z,84.78
2022-09-22T21:35:26.472Z,85.52
2022-09-22T21:38:30.075Z,86.20
2022-09-22T21:41:32.657Z,85.95
2022-09-22T21:44:34.479Z,86.14
2022-09-22T21:47:37.575Z,86.29
2022-09-22T21:50:39.350Z,86.95
2022-09-22T21:53:44.632Z,86.38
2022-09-22T21:56:47.047Z,86.75
2022-09-22T21:59:48.863Z,86.50
2022-09-22T22:03:09.899Z,85.88
2022-09-22T22:06:18.885Z,86.65
2022-09-22T22:09:22.749Z,86.47
2022-09-22T22:12:25.518Z,86.59
2022-09-22T22:15:27.640Z,88.02
2022-09-22T22:18:29.948Z,87.83
2022-09-22T22:21:35.314Z,88.98
2022-09-22T22:24:43.207Z,89.63
2022-09-22T22:27:45.994Z,89.10
2022-09-22T22:30:48.425Z,89.26
2022-09-22T22:33:50.800Z,90.85
2022-09-22T22:36:54.405Z,90.23
2022-09-22T22:39:56.798Z,91.25
2022-09-22T22:42:58.709Z,90.97
2022-09-22T22:46:01.867Z,90.47
2022-09-22T22:49:04.116Z,89.60
2022-09-22T22:52:06.106Z,89.95
2022-09-22T22:55:09.582Z,89.45
2022-09-22T22:58:12.835Z,87.89
2022-09-22T23:01:18.648Z,88.62
2022-09-22T23:04:21.364Z,88.35
2022-09-22T23:07:23.793Z,88.27
2022-09-22T23:10:26.069Z,88.34
2022-09-22T23:13:31.950Z,88.02
2022-09-22T23:16:47.084Z,87.27
2022-09-22T23:19:50.535Z,86.42
2022-09-22T23:22:56.220Z,85.86
2022-09-22T23:25:58.520Z,85.16
2022-09-22T23:29:01.619Z,84.50
2022-09-22T23:32:03.985Z,84.35
2022-09-22T23:35:07.292Z,84.65
2022-09-22T23:38:09.413Z,85.88
2022-09-22T23:41:12.813Z,86.02
2022-09-22T23:44:14.880Z,86.38
2022-09-22T23:47:17.139Z,86.20
2022-09-22T23:50:19.377Z,86.60
2022-09-22T23:53:24.784Z,86.71
2022-09-22T23:56:27.920Z,86.20
2022-09-22T23:59:29.704Z,86.02
